Time;durP1;ratioP1;P1;durP2;ratioP2;P2;SDS_P1;SDS_P2;PMS_P1;PMS_P2;Temp;Humidity;BMP_temperature;BMP_pressure;BME280_temperature;BME280_humidity;BME280_pressure;Samples;Min_cycle;Max_cycle;Signal;HPM_P1;HPM_P2
2023/08/27 04:01:20;;;;;;;3.40;3.30;;;14.00;99.90;;;;;;6116405;23;21083;-71
2023/08/27 04:03:46;;;;;;;3.53;3.43;;;14.00;99.90;;;;;;6152088;23;20414;-70
2023/08/27 04:06:14;;;;;;;3.27;3.17;;;14.00;99.90;;;;;;6155134;23;20426;-73
2023/08/27 04:08:41;;;;;;;4.37;4.07;;;14.00;99.90;;;;;;6155090;23;20507;-70
2023/08/27 04:11:09;;;;;;;3.57;3.30;;;14.00;99.90;;;;;;6156028;23;20501;-72
2023/08/27 04:13:36;;;;;;;3.23;3.10;;;14.00;99.90;;;;;;6152597;23;20426;-73
2023/08/27 04:16:04;;;;;;;4.63;4.07;;;14.00;99.90;;;;;;6151722;23;20989;-69
2023/08/27 04:18:32;;;;;;;3.33;3.23;;;14.00;99.90;;;;;;6153937;23;20419;-70
2023/08/27 04:20:59;;;;;;;3.07;2.97;;;14.00;99.90;;;;;;6154090;23;20426;-68
2023/08/27 04:23:25;;;;;;;3.40;3.30;;;14.00;99.90;;;;;;6154062;23;20419;-68
2023/08/27 04:25:52;;;;;;;5.20;4.23;;;14.00;99.90;;;;;;6154281;23;20435;-70
2023/08/27 04:28:19;;;;;;;6.87;3.93;;;13.90;99.90;;;;;;6154250;23;20753;-69
2023/08/27 04:30:48;;;;;;;3.53;3.43;;;13.90;99.90;;;;;;6154350;23;20423;-70
2023/08/27 04:33:15;;;;;;;3.30;3.20;;;13.90;99.90;;;;;;6153371;23;20422;-70
2023/08/27 04:35:44;;;;;;;4.53;4.23;;;14.00;99.90;;;;;;6151881;23;20450;-68
2023/08/27 04:38:11;;;;;;;3.90;3.70;;;14.00;99.90;;;;;;6149816;23;20955;-70
2023/08/27 04:40:37;;;;;;;4.20;4.00;;;13.90;99.90;;;;;;6154109;23;20419;-69
2023/08/27 04:43:04;;;;;;;4.23;3.23;;;13.90;99.90;;;;;;6154255;23;20426;-69
2023/08/27 04:45:31;;;;;;;3.80;3.60;;;13.90;99.90;;;;;;6154277;23;20441;-69
2023/08/27 04:47:58;;;;;;;3.70;3.50;;;14.00;99.90;;;;;;6153392;23;20437;-69
2023/08/27 04:50:24;;;;;;;3.70;3.50;;;14.00;99.90;;;;;;6154006;23;20418;-69
2023/08/27 04:52:52;;;;;;;4.10;4.00;;;14.00;99.90;;;;;;6154330;23;20445;-69
2023/08/27 04:55:19;;;;;;;4.37;4.17;;;14.00;99.90;;;;;;6153161;23;20423;-69
2023/08/27 04:57:46;;;;;;;4.57;4.27;;;13.90;99.90;;;;;;6152351;23;20447;-69
2023/08/27 05:00:19;;;;;;;3.70;3.50;;;14.00;99.90;;;;;;6153689;23;20787;-70
2023/08/27 05:02:47;;;;;;;6.37;4.00;;;14.00;99.90;;;;;;6152086;23;20522;-69
2023/08/27 05:05:13;;;;;;;5.03;4.63;;;14.00;99.90;;;;;;6152842;23;20427;-70
2023/08/27 05:07:40;;;;;;;4.00;3.70;;;14.00;99.90;;;;;;6151603;23;20415;-69
2023/08/27 05:10:09;;;;;;;4.70;4.40;;;14.00;99.90;;;;;;6153867;23;20419;-71
2023/08/27 05:12:36;;;;;;;4.50;4.20;;;14.00;99.90;;;;;;6154614;23;20429;-70
2023/08/27 05:15:03;;;;;;;3.50;3.30;;;14.00;99.90;;;;;;6154342;23;20419;-69
2023/08/27 05:17:30;;;;;;;4.00;3.80;;;14.00;99.90;;;;;;6152431;23;20461;-70
2023/08/27 05:19:57;;;;;;;3.73;3.53;;;14.10;99.90;;;;;;6153803;23;20430;-69
2023/08/27 05:22:23;;;;;;;4.73;4.50;;;14.10;99.90;;;;;;6153459;23;20418;-70
2023/08/27 05:24:50;;;;;;;3.17;3.03;;;14.20;99.90;;;;;;6153711;23;20522;-70
2023/08/27 05:27:18;;;;;;;7.13;4.23;;;14.20;99.90;;;;;;6153881;23;20766;-69
2023/08/27 05:29:46;;;;;;;3.20;3.10;;;14.10;99.90;;;;;;6153202;23;20434;-68
2023/08/27 05:32:13;;;;;;;3.60;3.50;;;14.10;99.90;;;;;;6153065;23;20426;-68
2023/08/27 05:34:40;;;;;;;4.23;3.93;;;14.10;99.90;;;;;;6153106;23;20433;-69
2023/08/27 05:37:06;;;;;;;3.97;2.67;;;14.10;99.90;;;;;;6152806;23;20447;-69
2023/08/27 05:39:34;;;;;;;3.50;3.40;;;14.20;99.90;;;;;;6152815;23;20880;-69
2023/08/27 05:42:01;;;;;;;3.57;3.47;;;14.30;99.90;;;;;;6152945;23;20419;-69
2023/08/27 05:44:29;;;;;;;5.60;4.80;;;14.40;99.90;;;;;;6151993;23;20419;-69
2023/08/27 05:46:55;;;;;;;3.70;3.60;;;14.50;99.90;;;;;;6152712;23;20442;-69
2023/08/27 05:49:22;;;;;;;2.87;2.77;;;14.50;99.90;;;;;;6152794;23;20939;-70
2023/08/27 05:51:49;;;;;;;4.50;4.10;;;14.60;99.90;;;;;;6151964;23;20418;-70
2023/08/27 05:54:15;;;;;;;3.87;3.57;;;14.60;99.90;;;;;;6151734;23;20422;-69
2023/08/27 05:56:42;;;;;;;4.23;3.90;;;14.70;99.90;;;;;;6152837;23;20439;-69
2023/08/27 05:59:11;;;;;;;4.00;3.80;;;14.80;99.90;;;;;;6153010;23;20458;-71
2023/08/27 06:01:41;;;;;;;3.23;3.03;;;14.90;99.90;;;;;;6151189;23;20465;-69
2023/08/27 06:04:07;;;;;;;4.37;4.00;;;14.90;99.90;;;;;;6152071;23;20760;-70
2023/08/27 06:06:34;;;;;;;6.53;5.27;;;15.00;99.90;;;;;;6152602;23;20438;-69
2023/08/27 06:09:01;;;;;;;4.47;3.80;;;15.00;99.90;;;;;;6152630;23;20422;-70
2023/08/27 06:11:27;;;;;;;3.90;3.70;;;15.10;99.90;;;;;;6151841;23;20423;-70
2023/08/27 06:13:54;;;;;;;4.37;4.10;;;15.20;99.90;;;;;;6152094;23;20426;-69
2023/08/27 06:16:21;;;;;;;4.17;3.87;;;15.20;99.90;;;;;;6152690;23;20953;-70
2023/08/27 06:18:49;;;;;;;3.80;3.70;;;15.20;99.90;;;;;;6151862;23;20450;-69
2023/08/27 06:21:17;;;;;;;4.50;4.20;;;15.30;99.90;;;;;;6151559;23;20418;-69
2023/08/27 06:23:44;;;;;;;3.53;3.33;;;15.30;99.90;;;;;;6152372;23;20450;-69
2023/08/27 06:26:11;;;;;;;4.33;4.13;;;15.30;99.90;;;;;;6153209;23;20446;-69
2023/08/27 06:28:38;;;;;;;3.73;3.53;;;15.40;99.90;;;;;;6152472;23;20423;-69
2023/08/27 06:31:04;;;;;;;3.87;3.20;;;15.50;99.90;;;;;;6151442;23;20427;-68
2023/08/27 06:33:31;;;;;;;4.43;4.20;;;15.50;99.90;;;;;;6149730;23;20750;-69
2023/08/27 06:35:59;;;;;;;4.30;4.07;;;15.50;99.90;;;;;;6151444;23;20438;-69
2023/08/27 06:38:26;;;;;;;3.53;3.33;;;15.50;99.90;;;;;;6150698;23;20442;-68
2023/08/27 06:40:53;;;;;;;3.30;3.10;;;15.50;99.90;;;;;;6152482;23;20418;-68
2023/08/27 06:43:19;;;;;;;3.53;3.37;;;15.60;99.90;;;;;;6151243;23;20428;-68
2023/08/27 06:45:46;;;;;;;3.93;3.63;;;15.70;99.90;;;;;;6152863;23;20946;-69
2023/08/27 06:48:13;;;;;;;4.37;3.93;;;15.80;99.90;;;;;;6151949;23;20498;-68
2023/08/27 06:50:40;;;;;;;5.33;3.27;;;15.80;99.90;;;;;;6153157;23;20501;-70
2023/08/27 06:53:08;;;;;;;4.27;4.10;;;15.90;99.90;;;;;;6151723;23;20764;-69
2023/08/27 06:55:35;;;;;;;3.33;3.23;;;15.90;99.90;;;;;;6152722;23;20453;-69
2023/08/27 06:58:02;;;;;;;3.00;2.80;;;16.00;99.90;;;;;;6152829;23;20448;-69
2023/08/27 07:00:29;;;;;;;3.70;3.60;;;16.00;99.90;;;;;;6150628;23;20835;-69
2023/08/27 07:02:55;;;;;;;3.47;3.27;;;16.20;99.90;;;;;;6152002;23;20430;-70
2023/08/27 07:05:23;;;;;;;3.20;3.07;;;16.20;99.90;;;;;;6150606;23;20788;-70
2023/08/27 07:07:50;;;;;;;3.27;3.17;;;16.40;99.90;;;;;;6151391;23;20474;-69
2023/08/27 07:10:18;;;;;;;2.70;2.60;;;16.50;99.90;;;;;;6151822;23;20420;-70
2023/08/27 07:12:45;;;;;;;3.20;3.10;;;16.50;99.90;;;;;;6152099;23;20431;-69
2023/08/27 07:15:13;;;;;;;3.47;3.27;;;16.50;99.90;;;;;;6152969;23;20420;-69
2023/08/27 07:17:41;;;;;;;2.90;2.77;;;16.40;99.90;;;;;;6150728;23;20447;-69
2023/08/27 07:20:09;;;;;;;3.70;3.33;;;16.30;99.90;;;;;;6152472;23;20426;-69
2023/08/27 07:22:35;;;;;;;3.17;3.07;;;16.30;99.90;;;;;;6152587;23;20427;-69
2023/08/27 07:25:02;;;;;;;3.93;3.70;;;16.20;99.90;;;;;;6152097;23;20418;-69
2023/08/27 07:27:30;;;;;;;2.67;2.57;;;16.30;99.90;;;;;;6151366;23;20446;-69
2023/08/27 07:29:57;;;;;;;2.80;2.70;;;16.40;99.90;;;;;;6152169;23;20418;-70
2023/08/27 07:32:24;;;;;;;7.03;3.20;;;16.40;99.90;;;;;;6151865;23;20418;-69
2023/08/27 07:34:51;;;;;;;2.07;1.97;;;16.50;99.90;;;;;;6153579;23;20419;-69
2023/08/27 07:37:17;;;;;;;4.00;2.60;;;16.60;99.90;;;;;;6151944;23;20462;-69
2023/08/27 07:39:44;;;;;;;2.60;2.50;;;16.60;99.90;;;;;;6153133;23;20418;-69
2023/08/27 07:42:11;;;;;;;2.70;2.60;;;16.70;99.90;;;;;;6154233;23;20425;-69
2023/08/27 07:44:39;;;;;;;2.73;2.63;;;16.70;99.90;;;;;;6154178;23;20424;-69
2023/08/27 07:47:06;;;;;;;2.77;2.57;;;16.70;99.90;;;;;;6153701;23;20506;-69
2023/08/27 07:49:33;;;;;;;5.00;2.90;;;16.70;99.90;;;;;;6154812;23;20416;-69
2023/08/27 07:51:59;;;;;;;3.40;3.10;;;16.80;99.90;;;;;;6152795;23;20910;-69
2023/08/27 07:54:26;;;;;;;2.77;2.60;;;16.80;99.90;;;;;;6154083;23;20425;-69
2023/08/27 07:56:53;;;;;;;2.93;2.83;;;17.00;99.90;;;;;;6153392;23;20452;-69
2023/08/27 07:59:19;;;;;;;3.20;3.10;;;17.10;99.90;;;;;;6151101;23;20412;-69
2023/08/27 08:01:48;;;;;;;2.40;2.30;;;17.20;99.90;;;;;;6152347;23;20204;-69
2023/08/27 08:04:15;;;;;;;2.37;2.30;;;17.30;99.90;;;;;;6151249;23;20423;-69
2023/08/27 08:06:41;;;;;;;2.77;2.67;;;17.50;99.90;;;;;;6154674;23;20452;-68
2023/08/27 08:09:08;;;;;;;2.27;2.17;;;17.60;99.90;;;;;;6153263;23;20417;-69
2023/08/27 08:11:35;;;;;;;2.50;2.40;;;17.50;99.90;;;;;;6148595;23;20753;-70
2023/08/27 08:14:02;;;;;;;2.00;2.00;;;17.50;99.90;;;;;;6154304;23;20422;-69
2023/08/27 08:16:29;;;;;;;2.43;2.37;;;17.50;99.90;;;;;;6153123;23;20519;-70
2023/08/27 08:18:57;;;;;;;2.20;2.20;;;17.50;99.90;;;;;;6153290;23;20487;-70
2023/08/27 08:21:24;;;;;;;2.50;2.40;;;17.60;99.90;;;;;;6154161;23;20452;-70
2023/08/27 08:23:50;;;;;;;2.80;2.70;;;17.70;99.90;;;;;;6154434;23;20422;-70
2023/08/27 08:26:17;;;;;;;2.37;2.27;;;17.70;99.90;;;;;;6154493;23;20442;-70
2023/08/27 08:28:44;;;;;;;2.40;2.30;;;18.00;99.90;;;;;;6153721;23;20426;-69
2023/08/27 08:31:10;;;;;;;1.87;1.87;;;18.10;99.90;;;;;;6154181;23;20429;-69
2023/08/27 08:33:37;;;;;;;1.97;1.97;;;18.40;99.90;;;;;;6153920;23;20419;-70
2023/08/27 08:36:05;;;;;;;2.20;2.10;;;18.50;99.90;;;;;;6154231;23;20539;-69
2023/08/27 08:38:33;;;;;;;2.03;2.03;;;18.50;99.90;;;;;;6153299;23;20450;-69
2023/08/27 08:41:03;;;;;;;1.80;1.80;;;18.60;99.90;;;;;;6151841;23;20419;-70
2023/08/27 08:43:37;;;;;;;1.33;1.33;;;18.60;99.90;;;;;;6152377;23;20478;-69
2023/08/27 08:46:06;;;;;;;1.70;1.70;;;18.60;99.90;;;;;;6152865;23;20496;-69
2023/08/27 08:48:39;;;;;;;2.37;2.27;;;18.70;99.90;;;;;;6152296;23;20744;-70
2023/08/27 08:51:08;;;;;;;2.07;1.97;;;18.70;99.90;;;;;;6151800;23;20417;-70
2023/08/27 08:53:38;;;;;;;3.90;1.87;;;18.80;99.90;;;;;;6151977;23;20423;-70
2023/08/27 08:56:07;;;;;;;1.70;1.70;;;18.80;99.90;;;;;;6152629;23;20442;-70
2023/08/27 08:58:37;;;;;;;1.80;1.70;;;18.80;99.90;;;;;;6152690;23;20953;-70
2023/08/27 09:01:04;;;;;;;1.70;1.70;;;18.90;99.90;;;;;;6152446;23;20426;-70
2023/08/27 09:03:32;;;;;;;1.27;1.27;;;19.10;99.90;;;;;;6150715;23;20456;-69
2023/08/27 09:06:00;;;;;;;1.77;1.77;;;19.30;99.90;;;;;;6152456;23;20448;-70
2023/08/27 09:08:31;;;;;;;1.53;1.43;;;19.50;99.90;;;;;;6152414;23;20415;-69
2023/08/27 09:10:58;;;;;;;1.30;1.30;;;19.60;99.90;;;;;;6150744;23;20431;-70
2023/08/27 09:13:24;;;;;;;1.23;1.23;;;19.90;99.90;;;;;;6151698;23;20420;-70
2023/08/27 09:15:52;;;;;;;1.77;1.70;;;20.00;99.90;;;;;;6152620;23;20471;-69
2023/08/27 09:18:19;;;;;;;2.37;1.60;;;20.30;99.90;;;;;;6152424;23;20516;-68
2023/08/27 09:20:46;;;;;;;3.03;1.40;;;20.40;99.90;;;;;;6151345;23;20432;-70
2023/08/27 09:23:13;;;;;;;3.50;1.43;;;20.40;99.90;;;;;;6153179;23;20422;-70
2023/08/27 09:25:42;;;;;;;1.30;1.30;;;20.40;99.90;;;;;;6161668;23;20439;-69
2023/08/27 09:28:08;;;;;;;2.50;1.10;;;20.50;99.90;;;;;;6152334;23;20416;-70
2023/08/27 09:30:35;;;;;;;1.43;1.43;;;20.50;99.90;;;;;;6150075;23;20922;-69
2023/08/27 09:33:03;;;;;;;1.10;1.10;;;20.50;99.90;;;;;;6151490;23;20450;-69
2023/08/27 09:35:39;;;;;;;7.00;1.87;;;20.50;99.90;;;;;;6151717;23;20536;-69
2023/08/27 09:38:06;;;;;;;1.30;1.30;;;20.60;99.90;;;;;;6152688;23;20445;-69
2023/08/27 09:40:33;;;;;;;1.50;1.50;;;20.70;99.90;;;;;;6151551;23;20437;-70
2023/08/27 09:43:06;;;;;;;1.17;1.17;;;20.70;99.90;;;;;;6151803;23;20476;-70
2023/08/27 09:45:33;;;;;;;1.20;1.03;;;20.80;99.90;;;;;;6151936;23;20426;-70
2023/08/27 09:48:01;;;;;;;1.17;1.17;;;21.00;99.90;;;;;;6151542;23;20418;-69
2023/08/27 09:50:29;;;;;;;1.10;1.10;;;21.10;99.90;;;;;;6147674;23;20426;-70
2023/08/27 09:53:05;;;;;;;1.23;1.23;;;21.30;99.90;;;;;;6150747;23;20422;-71
2023/08/27 09:55:32;;;;;;;1.60;1.60;;;21.40;99.90;;;;;;6150164;23;20403;-69
2023/08/27 09:57:59;;;;;;;2.10;1.20;;;21.50;99.90;;;;;;6149713;23;20418;-69
2023/08/27 10:00:29;;;;;;;0.80;0.80;;;21.40;99.90;;;;;;6150192;23;20509;-68
2023/08/27 10:02:56;;;;;;;1.40;1.20;;;21.40;99.90;;;;;;6150316;23;20422;-69
2023/08/27 10:05:27;;;;;;;1.60;1.60;;;21.40;99.90;;;;;;6148984;23;20422;-69
2023/08/27 10:07:57;;;;;;;1.27;1.27;;;21.50;99.90;;;;;;6150424;23;20406;-68
2023/08/27 10:10:25;;;;;;;1.50;1.20;;;21.60;99.90;;;;;;6150899;23;20880;-68
2023/08/27 10:12:53;;;;;;;2.37;2.23;;;21.70;99.90;;;;;;6151847;23;20423;-68
2023/08/27 10:15:20;;;;;;;1.33;1.33;;;21.70;99.90;;;;;;6149278;23;20933;-68
2023/08/27 10:17:49;;;;;;;1.60;1.50;;;21.70;99.90;;;;;;6144667;23;20417;-70
2023/08/27 10:20:18;;;;;;;1.20;1.20;;;21.70;99.90;;;;;;6149369;23;20447;-68
2023/08/27 10:22:46;;;;;;;3.20;1.37;;;21.70;99.90;;;;;;6151217;23;20752;-68
2023/08/27 10:25:15;;;;;;;1.50;1.50;;;21.90;99.90;;;;;;6148903;23;20419;-68
2023/08/27 10:27:42;;;;;;;1.00;1.00;;;22.10;99.90;;;;;;6148798;23;20423;-69
2023/08/27 10:30:11;;;;;;;0.90;0.90;;;22.30;99.90;;;;;;6150648;23;20760;-69
2023/08/27 10:32:38;;;;;;;4.90;1.30;;;22.50;99.90;;;;;;6150997;23;20420;-69
2023/08/27 10:35:09;;;;;;;1.40;1.40;;;22.50;99.90;;;;;;6149808;23;20987;-70
2023/08/27 10:37:39;;;;;;;2.07;1.10;;;22.60;99.90;;;;;;6150769;23;20445;-68
2023/08/27 10:40:08;;;;;;;0.70;0.70;;;22.60;99.90;;;;;;6150764;23;20489;-68
2023/08/27 10:42:36;;;;;;;1.23;1.20;;;22.50;99.90;;;;;;6147695;23;20779;-69
2023/08/27 10:45:16;;;;;;;1.00;1.00;;;22.50;99.90;;;;;;6146805;23;20419;-68
2023/08/27 10:48:03;;;;;;;1.40;1.30;;;22.50;99.90;;;;;;6150700;23;20428;-68
2023/08/27 10:50:43;;;;;;;1.00;1.00;;;22.60;99.90;;;;;;6150913;23;20497;-69
2023/08/27 10:53:10;;;;;;;1.10;1.10;;;22.70;99.90;;;;;;6160612;23;20424;-69
2023/08/27 10:55:37;;;;;;;1.00;1.00;;;22.80;99.90;;;;;;6151906;23;20440;-69
2023/08/27 10:58:16;;;;;;;1.00;1.00;;;22.80;99.90;;;;;;6151336;23;20493;-69
2023/08/27 11:01:00;;;;;;;1.23;1.23;;;22.90;99.90;;;;;;6151789;23;20427;-69
2023/08/27 11:03:27;;;;;;;1.07;1.07;;;22.90;99.90;;;;;;6148318;23;20471;-69
2023/08/27 11:06:13;;;;;;;0.90;0.90;;;22.90;99.90;;;;;;6150697;23;20440;-69
2023/08/27 11:08:41;;;;;;;1.30;1.30;;;23.00;99.90;;;;;;6151002;23;20409;-69
2023/08/27 11:11:12;;;;;;;1.43;1.43;;;23.00;99.90;;;;;;6152565;23;20418;-70
2023/08/27 11:13:41;;;;;;;1.73;1.73;;;22.90;99.90;;;;;;6152072;23;20417;-69
2023/08/27 11:16:13;;;;;;;1.30;1.30;;;22.70;99.90;;;;;;6152429;23;20478;-70
2023/08/27 11:18:49;;;;;;;1.40;1.30;;;22.60;99.90;;;;;;6152607;23;20450;-69
2023/08/27 11:21:41;;;;;;;1.50;1.50;;;22.70;99.90;;;;;;6153217;23;20406;-70
2023/08/27 11:24:14;;;;;;;1.87;1.87;;;22.70;99.90;;;;;;6149714;23;20411;-69
2023/08/27 11:26:42;;;;;;;1.20;1.20;;;22.60;99.90;;;;;;6150963;23;20943;-68
2023/08/27 11:29:09;;;;;;;1.57;1.47;;;22.60;99.90;;;;;;6150089;23;20426;-69
2023/08/27 11:31:38;;;;;;;1.57;1.57;;;22.60;99.90;;;;;;6149902;23;20406;-69
2023/08/27 11:34:06;;;;;;;1.83;1.83;;;22.30;99.90;;;;;;6152407;23;20820;-69
2023/08/27 11:36:34;;;;;;;1.13;1.13;;;22.20;99.90;;;;;;6161088;23;20459;-69
2023/08/27 11:39:02;;;;;;;1.57;1.47;;;22.10;99.90;;;;;;6151581;23;20446;-69
2023/08/27 11:41:35;;;;;;;2.80;1.50;;;21.90;99.90;;;;;;6152769;23;20421;-70
2023/08/27 11:44:02;;;;;;;1.53;1.43;;;21.80;99.90;;;;;;6153407;23;20409;-69
2023/08/27 11:46:29;;;;;;;1.47;1.47;;;21.70;99.90;;;;;;6153092;23;20468;-69
2023/08/27 11:48:56;;;;;;;2.07;2.07;;;21.60;99.90;;;;;;6151893;23;20425;-69
2023/08/27 11:51:23;;;;;;;1.43;1.43;;;21.40;99.90;;;;;;6152331;23;20420;-68
2023/08/27 11:53:51;;;;;;;1.53;1.53;;;21.30;99.90;;;;;;6152552;23;20421;-69
2023/08/27 11:56:18;;;;;;;1.60;1.60;;;21.20;99.90;;;;;;6153585;23;20477;-70
2023/08/27 11:58:46;;;;;;;4.30;1.90;;;21.30;99.90;;;;;;6152606;23;20781;-69
2023/08/27 12:01:13;;;;;;;1.60;1.60;;;21.40;99.90;;;;;;6152635;23;20472;-69
2023/08/27 12:03:41;;;;;;;1.57;1.57;;;21.40;99.90;;;;;;6152253;23;20428;-70
2023/08/27 12:06:15;;;;;;;1.90;1.80;;;21.50;99.90;;;;;;6156057;23;20464;-70
2023/08/27 12:08:41;;;;;;;1.67;1.67;;;21.50;99.90;;;;;;6152182;23;20410;-70
2023/08/27 12:11:09;;;;;;;1.90;1.40;;;21.60;99.90;;;;;;6151909;23;20438;-70
2023/08/27 12:13:38;;;;;;;3.90;1.73;;;21.60;99.90;;;;;;6152476;23;20421;-69
2023/08/27 12:16:05;;;;;;;1.50;1.50;;;21.60;99.90;;;;;;6152488;23;20450;-69
2023/08/27 12:18:34;;;;;;;1.67;1.57;;;21.50;99.90;;;;;;6151980;23;20737;-69
2023/08/27 12:21:06;;;;;;;1.70;1.70;;;21.40;99.90;;;;;;6151914;23;20425;-69
2023/08/27 12:23:33;;;;;;;1.60;1.60;;;21.30;99.90;;;;;;6151583;23;20414;-68
2023/08/27 12:26:03;;;;;;;1.77;1.67;;;21.20;99.90;;;;;;6152901;23;20853;-70
2023/08/27 12:28:33;;;;;;;2.10;2.10;;;21.20;99.90;;;;;;6149577;23;20427;-68
2023/08/27 12:31:00;;;;;;;2.03;1.80;;;21.10;99.90;;;;;;6150838;23;20401;-69
2023/08/27 12:33:39;;;;;;;1.73;1.73;;;21.10;99.90;;;;;;6147866;23;20879;-68
2023/08/27 12:36:07;;;;;;;1.60;1.40;;;21.10;99.90;;;;;;6150485;23;20458;-68
2023/08/27 12:38:34;;;;;;;0.90;0.90;;;21.10;99.90;;;;;;6151188;23;20420;-68
2023/08/27 12:41:01;;;;;;;0.87;0.83;;;21.10;99.90;;;;;;6151855;23;20557;-69
2023/08/27 12:43:28;;;;;;;1.03;1.03;;;21.20;99.90;;;;;;6150254;23;20912;-68
2023/08/27 12:45:56;;;;;;;1.00;1.00;;;21.20;99.90;;;;;;6152722;23;20527;-68
2023/08/27 12:48:23;;;;;;;0.70;0.70;;;21.20;99.90;;;;;;6151197;23;20447;-69
2023/08/27 12:50:49;;;;;;;1.33;0.90;;;21.10;99.90;;;;;;6150587;23;20507;-70
2023/08/27 12:53:17;;;;;;;2.43;1.70;;;21.10;99.90;;;;;;6149540;23;20428;-68
2023/08/27 12:55:44;;;;;;;1.23;1.23;;;21.20;99.90;;;;;;6152128;23;20446;-68
2023/08/27 12:58:10;;;;;;;1.63;1.10;;;21.20;99.90;;;;;;6152870;23;20421;-68
2023/08/27 13:00:37;;;;;;;1.33;0.90;;;21.30;99.90;;;;;;6152179;23;20444;-68
2023/08/27 13:03:05;;;;;;;0.90;0.90;;;21.30;99.90;;;;;;6151372;23;20949;-68
2023/08/27 13:05:33;;;;;;;1.50;0.90;;;21.30;99.90;;;;;;6150813;23;20453;-68
2023/08/27 13:08:01;;;;;;;1.40;1.10;;;21.40;99.90;;;;;;6152732;23;20700;-71
2023/08/27 13:10:28;;;;;;;1.10;1.10;;;21.30;99.90;;;;;;6153122;23;20418;-68
2023/08/27 13:12:54;;;;;;;1.00;1.00;;;21.30;99.90;;;;;;6151760;23;20453;-67
2023/08/27 13:15:21;;;;;;;0.90;0.90;;;21.20;99.90;;;;;;6151372;23;20421;-68
2023/08/27 13:17:48;;;;;;;1.27;1.20;;;21.30;99.90;;;;;;6151898;23;20410;-68
2023/08/27 13:20:16;;;;;;;0.90;0.90;;;21.40;99.90;;;;;;6152170;23;20468;-68
2023/08/27 13:22:43;;;;;;;1.10;1.10;;;21.50;99.90;;;;;;6151962;23;20762;-68
2023/08/27 13:25:13;;;;;;;0.73;0.73;;;21.60;99.90;;;;;;6152375;23;20454;-69
2023/08/27 13:27:40;;;;;;;1.30;1.20;;;21.70;99.90;;;;;;6152699;23;20470;-67
2023/08/27 13:30:08;;;;;;;0.63;0.63;;;21.80;99.90;;;;;;6149922;23;20857;-68
2023/08/27 13:32:35;;;;;;;0.50;0.50;;;21.70;99.90;;;;;;6152155;23;20425;-68
2023/08/27 13:35:05;;;;;;;0.67;0.67;;;21.60;99.90;;;;;;6152626;23;20429;-69
2023/08/27 13:37:33;;;;;;;3.33;0.90;;;21.60;99.90;;;;;;6151951;23;20522;-67
2023/08/27 13:40:00;;;;;;;0.63;0.63;;;21.50;99.90;;;;;;6150657;23;20442;-68
2023/08/27 13:42:26;;;;;;;0.60;0.60;;;21.40;99.90;;;;;;6152105;23;20952;-68
2023/08/27 13:44:53;;;;;;;0.50;0.50;;;21.30;99.90;;;;;;6151716;23;20423;-71
2023/08/27 13:47:20;;;;;;;0.50;0.50;;;21.30;99.90;;;;;;6151199;23;20879;-68
2023/08/27 13:49:47;;;;;;;0.50;0.50;;;21.10;99.90;;;;;;6151072;23;20421;-68
2023/08/27 13:52:15;;;;;;;0.40;0.40;;;21.10;99.90;;;;;;6151418;23;20480;-68
2023/08/27 13:54:43;;;;;;;0.70;0.70;;;21.10;99.90;;;;;;6152109;23;20425;-68
2023/08/27 13:57:10;;;;;;;0.57;0.57;;;21.10;99.90;;;;;;6152050;23;20837;-67
2023/08/27 13:59:37;;;;;;;0.47;0.47;;;21.10;99.90;;;;;;6152429;23;20461;-68
2023/08/27 14:02:04;;;;;;;0.60;0.60;;;21.10;99.90;;;;;;6152493;23;20432;-67
2023/08/27 14:04:31;;;;;;;0.40;0.40;;;21.20;99.90;;;;;;6151959;23;20422;-71
2023/08/27 14:06:58;;;;;;;1.90;0.40;;;21.20;99.90;;;;;;6150724;23;20452;-69
2023/08/27 14:09:25;;;;;;;0.30;0.30;;;21.30;99.90;;;;;;6151432;23;20874;-68
2023/08/27 14:11:53;;;;;;;0.60;0.60;;;21.40;99.90;;;;;;6152346;23;20422;-69
2023/08/27 14:14:19;;;;;;;0.40;0.40;;;21.40;99.90;;;;;;6152442;23;20421;-69
2023/08/27 14:16:46;;;;;;;0.60;0.60;;;21.40;99.90;;;;;;6152128;23;20760;-69
2023/08/27 14:19:13;;;;;;;0.60;0.60;;;21.40;99.90;;;;;;6152377;23;20422;-69
2023/08/27 14:21:40;;;;;;;0.50;0.50;;;21.50;99.90;;;;;;6151851;23;20445;-69
2023/08/27 14:24:09;;;;;;;1.27;0.70;;;21.60;99.90;;;;;;6152656;23;20426;-70
2023/08/27 14:26:37;;;;;;;0.60;0.60;;;21.50;99.90;;;;;;6161304;23;20439;-68
2023/08/27 14:29:05;;;;;;;1.70;0.90;;;21.40;99.90;;;;;;6150829;23;20426;-69
2023/08/27 14:31:32;;;;;;;0.80;0.80;;;21.40;99.90;;;;;;6150168;23;20532;-68
2023/08/27 14:34:03;;;;;;;0.73;0.73;;;21.50;99.90;;;;;;6151270;23;20747;-67
2023/08/27 14:36:30;;;;;;;0.70;0.70;;;21.50;99.90;;;;;;6150671;23;20439;-71
2023/08/27 14:38:58;;;;;;;0.50;0.50;;;21.50;99.90;;;;;;6151059;23;20436;-68
2023/08/27 14:41:25;;;;;;;0.40;0.40;;;21.60;99.90;;;;;;6151177;23;20505;-67
2023/08/27 14:43:52;;;;;;;0.50;0.50;;;21.70;99.90;;;;;;6152443;23;20818;-69
2023/08/27 14:46:20;;;;;;;0.60;0.60;;;21.70;99.90;;;;;;6151144;23;20522;-69
2023/08/27 14:48:48;;;;;;;0.50;0.50;;;21.60;99.90;;;;;;6151979;23;20422;-68
2023/08/27 14:51:15;;;;;;;0.67;0.67;;;21.60;99.90;;;;;;6151850;23;20911;-67
2023/08/27 14:53:41;;;;;;;0.50;0.50;;;21.70;99.90;;;;;;6152781;23;20795;-68
2023/08/27 14:56:08;;;;;;;0.97;0.97;;;21.60;99.90;;;;;;6152392;23;20449;-69
2023/08/27 14:58:35;;;;;;;0.50;0.50;;;21.60;99.90;;;;;;6152236;23;20496;-68
2023/08/27 15:01:02;;;;;;;0.67;0.67;;;21.60;99.90;;;;;;6162488;23;20488;-67
2023/08/27 15:03:30;;;;;;;0.80;0.80;;;21.60;99.90;;;;;;6151429;23;20761;-67
2023/08/27 15:05:57;;;;;;;1.00;1.00;;;21.50;99.90;;;;;;6152692;23;20446;-68
2023/08/27 15:08:24;;;;;;;0.90;0.90;;;21.60;99.90;;;;;;6152718;23;20919;-68
2023/08/27 15:10:50;;;;;;;0.97;0.97;;;21.60;99.90;;;;;;6152517;23;20501;-70
2023/08/27 15:13:17;;;;;;;0.63;0.63;;;21.70;99.90;;;;;;6153244;23;20425;-69
2023/08/27 15:15:44;;;;;;;0.77;0.77;;;21.60;99.90;;;;;;6152212;23;20524;-68
2023/08/27 15:18:10;;;;;;;0.90;0.90;;;21.70;99.90;;;;;;6153055;23;20838;-69
2023/08/27 15:20:38;;;;;;;1.70;1.20;;;21.60;99.90;;;;;;6151931;23;20453;-68
2023/08/27 15:23:05;;;;;;;2.67;1.00;;;21.60;99.90;;;;;;6162938;23;20811;-69
2023/08/27 15:25:32;;;;;;;0.97;0.97;;;21.60;99.90;;;;;;6162306;23;20456;-69
2023/08/27 15:27:59;;;;;;;0.87;0.87;;;21.60;99.90;;;;;;6152535;23;20763;-70
2023/08/27 15:30:26;;;;;;;0.90;0.90;;;21.60;99.90;;;;;;6153215;23;20777;-68
2023/08/27 15:32:52;;;;;;;0.93;0.90;;;21.60;99.90;;;;;;6152258;23;20766;-67
2023/08/27 15:35:19;;;;;;;1.00;1.00;;;21.50;99.90;;;;;;6152250;23;20426;-69
2023/08/27 15:37:47;;;;;;;1.17;1.17;;;21.40;99.90;;;;;;6151010;23;20431;-67
2023/08/27 15:40:14;;;;;;;1.43;1.33;;;21.30;99.90;;;;;;6150676;23;20447;-68
2023/08/27 15:42:42;;;;;;;1.70;1.70;;;21.20;99.90;;;;;;6152188;23;20421;-67
2023/08/27 15:45:09;;;;;;;1.10;1.10;;;21.30;99.90;;;;;;6150788;23;20422;-68
2023/08/27 15:47:36;;;;;;;1.50;1.50;;;21.20;99.90;;;;;;6151848;23;20451;-68
2023/08/27 15:50:04;;;;;;;1.13;1.13;;;21.20;99.90;;;;;;6152160;23;20432;-68
2023/08/27 15:52:31;;;;;;;1.03;1.03;;;21.20;99.90;;;;;;6151533;23;20422;-67
2023/08/27 15:55:00;;;;;;;4.63;1.50;;;21.20;99.90;;;;;;6153725;23;20420;-68
2023/08/27 15:57:27;;;;;;;1.00;1.00;;;21.30;99.90;;;;;;6153726;23;20968;-68
2023/08/27 15:59:54;;;;;;;1.30;1.30;;;21.20;99.90;;;;;;6154675;23;20453;-68
2023/08/27 16:02:20;;;;;;;1.30;1.30;;;21.20;99.90;;;;;;6152186;23;20429;-68
2023/08/27 16:04:47;;;;;;;1.30;1.30;;;21.20;99.90;;;;;;6153342;23;21175;-68
2023/08/27 16:07:14;;;;;;;1.87;1.80;;;21.30;99.90;;;;;;6152915;23;20451;-70
2023/08/27 16:09:41;;;;;;;1.50;1.50;;;21.40;99.90;;;;;;6152218;23;20421;-70
2023/08/27 16:12:09;;;;;;;1.30;1.20;;;21.40;99.90;;;;;;6151874;23;20969;-69
2023/08/27 16:14:35;;;;;;;1.37;1.37;;;21.40;99.90;;;;;;6154365;23;20425;-69
2023/08/27 16:19:30;;;;;;;1.43;1.43;;;21.50;99.90;;;;;;6153090;23;20462;-68
2023/08/27 16:21:56;;;;;;;1.40;1.40;;;21.50;99.90;;;;;;6151427;23;20448;-69
2023/08/27 16:24:23;;;;;;;1.67;1.67;;;21.40;99.90;;;;;;6151954;23;20426;-69
2023/08/27 16:26:50;;;;;;;2.23;2.10;;;21.40;99.90;;;;;;6152693;23;20471;-70
2023/08/27 16:29:18;;;;;;;1.63;1.63;;;21.40;99.90;;;;;;6150175;23;20446;-70
2023/08/27 16:31:44;;;;;;;1.67;1.57;;;21.50;99.90;;;;;;6153055;23;20428;-70
2023/08/27 16:34:11;;;;;;;2.30;2.30;;;21.50;99.90;;;;;;6152796;23;20422;-70
2023/08/27 16:36:38;;;;;;;1.80;1.70;;;21.50;99.90;;;;;;6151124;23;20799;-70
2023/08/27 16:39:05;;;;;;;1.70;1.70;;;21.30;99.90;;;;;;6152835;23;20446;-70
2023/08/27 16:41:32;;;;;;;1.87;1.87;;;21.20;99.90;;;;;;6150964;23;20785;-70
2023/08/27 16:43:59;;;;;;;2.20;2.20;;;21.10;99.90;;;;;;6153345;23;20452;-70
2023/08/27 16:46:27;;;;;;;1.20;1.20;;;21.00;99.90;;;;;;6152029;23;20464;-70
2023/08/27 16:48:54;;;;;;;2.50;2.40;;;21.00;99.90;;;;;;6152460;23;20442;-70
2023/08/27 16:51:20;;;;;;;2.47;2.37;;;20.90;99.90;;;;;;6152785;23;20434;-70
2023/08/27 16:53:48;;;;;;;2.07;2.07;;;20.90;99.90;;;;;;6152598;23;20421;-70